sensor_id;sensor_type;location;lat;lon;timestamp;P1;durP1;ratioP1;P2;durP2;ratioP2
58242;SDS011;50118;53.232;8.252;2023-05-15T00:00:09;13.18;;;11.40;;
58242;SDS011;50118;53.232;8.252;2023-05-15T00:02:36;14.80;;;11.50;;
58242;SDS011;50118;53.232;8.252;2023-05-15T00:05:03;14.23;;;12.25;;
58242;SDS011;50118;53.232;8.252;2023-05-15T00:07:29;14.18;;;12.65;;
58242;SDS011;50118;53.232;8.252;2023-05-15T00:09:55;14.48;;;11.68;;
58242;SDS011;50118;53.232;8.252;2023-05-15T00:12:20;15.57;;;12.57;;
58242;SDS011;50118;53.232;8.252;2023-05-15T00:14:46;15.60;;;13.73;;
58242;SDS011;50118;53.232;8.252;2023-05-15T00:17:11;14.52;;;12.68;;
58242;SDS011;50118;53.232;8.252;2023-05-15T00:19:37;18.67;;;14.48;;
58242;SDS011;50118;53.232;8.252;2023-05-15T00:22:03;18.48;;;15.27;;
58242;SDS011;50118;53.232;8.252;2023-05-15T00:24:28;17.05;;;15.07;;
58242;SDS011;50118;53.232;8.252;2023-05-15T00:26:54;17.77;;;15.02;;
58242;SDS011;50118;53.232;8.252;2023-05-15T00:29:19;20.33;;;15.32;;
58242;SDS011;50118;53.232;8.252;2023-05-15T00:31:44;16.80;;;13.98;;
58242;SDS011;50118;53.232;8.252;2023-05-15T00:34:10;16.42;;;14.20;;
58242;SDS011;50118;53.232;8.252;2023-05-15T00:36:35;18.33;;;14.18;;
58242;SDS011;50118;53.232;8.252;2023-05-15T00:39:01;19.42;;;16.80;;
58242;SDS011;50118;53.232;8.252;2023-05-15T00:41:27;21.45;;;16.90;;
58242;SDS011;50118;53.232;8.252;2023-05-15T00:43:56;20.02;;;15.88;;
58242;SDS011;50118;53.232;8.252;2023-05-15T00:46:22;20.52;;;16.10;;
58242;SDS011;50118;53.232;8.252;2023-05-15T00:48:49;16.95;;;13.85;;
58242;SDS011;50118;53.232;8.252;2023-05-15T00:51:15;19.80;;;16.20;;
58242;SDS011;50118;53.232;8.252;2023-05-15T00:53:41;17.83;;;14.23;;
58242;SDS011;50118;53.232;8.252;2023-05-15T00:56:08;20.33;;;15.38;;
58242;SDS011;50118;53.232;8.252;2023-05-15T00:58:35;20.50;;;16.73;;
58242;SDS011;50118;53.232;8.252;2023-05-15T01:01:01;20.00;;;17.00;;
58242;SDS011;50118;53.232;8.252;2023-05-15T01:03:27;18.33;;;15.65;;
58242;SDS011;50118;53.232;8.252;2023-05-15T01:05:53;19.20;;;15.27;;
58242;SDS011;50118;53.232;8.252;2023-05-15T01:11:06;20.02;;;15.85;;
58242;SDS011;50118;53.232;8.252;2023-05-15T01:13:32;19.00;;;15.60;;
58242;SDS011;50118;53.232;8.252;2023-05-15T01:15:58;20.58;;;16.38;;
58242;SDS011;50118;53.232;8.252;2023-05-15T01:18:23;21.15;;;17.63;;
58242;SDS011;50118;53.232;8.252;2023-05-15T01:29:35;18.05;;;15.52;;
58242;SDS011;50118;53.232;8.252;2023-05-15T01:32:06;19.25;;;16.52;;
58242;SDS011;50118;53.232;8.252;2023-05-15T01:34:59;24.65;;;18.30;;
58242;SDS011;50118;53.232;8.252;2023-05-15T01:37:26;18.75;;;16.30;;
58242;SDS011;50118;53.232;8.252;2023-05-15T01:39:54;21.42;;;17.20;;
58242;SDS011;50118;53.232;8.252;2023-05-15T01:42:26;19.80;;;16.00;;
58242;SDS011;50118;53.232;8.252;2023-05-15T01:44:57;19.35;;;16.92;;
58242;SDS011;50118;53.232;8.252;2023-05-15T01:47:49;20.98;;;17.42;;
58242;SDS011;50118;53.232;8.252;2023-05-15T01:50:16;21.90;;;17.33;;
58242;SDS011;50118;53.232;8.252;2023-05-15T01:52:55;20.77;;;16.35;;
58242;SDS011;50118;53.232;8.252;2023-05-15T01:55:22;23.65;;;19.00;;
58242;SDS011;50118;53.232;8.252;2023-05-15T01:57:49;20.55;;;16.92;;
58242;SDS011;50118;53.232;8.252;2023-05-15T02:00:16;19.15;;;16.75;;
58242;SDS011;50118;53.232;8.252;2023-05-15T02:02:43;21.02;;;17.20;;
58242;SDS011;50118;53.232;8.252;2023-05-15T02:05:10;18.73;;;16.02;;
58242;SDS011;50118;53.232;8.252;2023-05-15T02:07:37;20.55;;;16.83;;
58242;SDS011;50118;53.232;8.252;2023-05-15T02:10:03;19.25;;;15.73;;
58242;SDS011;50118;53.232;8.252;2023-05-15T02:12:29;21.38;;;16.90;;
58242;SDS011;50118;53.232;8.252;2023-05-15T02:14:56;18.73;;;16.33;;
58242;SDS011;50118;53.232;8.252;2023-05-15T02:17:22;21.25;;;16.77;;
58242;SDS011;50118;53.232;8.252;2023-05-15T02:19:48;20.88;;;16.35;;
58242;SDS011;50118;53.232;8.252;2023-05-15T02:22:14;22.80;;;18.08;;
58242;SDS011;50118;53.232;8.252;2023-05-15T02:24:39;20.02;;;16.75;;
58242;SDS011;50118;53.232;8.252;2023-05-15T02:27:24;20.20;;;16.38;;
58242;SDS011;50118;53.232;8.252;2023-05-15T02:32:52;21.40;;;17.33;;
58242;SDS011;50118;53.232;8.252;2023-05-15T02:38:22;22.15;;;17.85;;
58242;SDS011;50118;53.232;8.252;2023-05-15T02:40:53;24.25;;;17.67;;
58242;SDS011;50118;53.232;8.252;2023-05-15T02:43:20;23.25;;;18.15;;
58242;SDS011;50118;53.232;8.252;2023-05-15T02:45:47;23.20;;;18.60;;
58242;SDS011;50118;53.232;8.252;2023-05-15T02:48:14;23.63;;;19.30;;
58242;SDS011;50118;53.232;8.252;2023-05-15T02:50:41;27.98;;;20.75;;
58242;SDS011;50118;53.232;8.252;2023-05-15T02:53:07;27.25;;;20.67;;
58242;SDS011;50118;53.232;8.252;2023-05-15T02:55:34;34.83;;;24.20;;
58242;SDS011;50118;53.232;8.252;2023-05-15T02:58:00;34.28;;;24.77;;
58242;SDS011;50118;53.232;8.252;2023-05-15T03:00:27;39.03;;;27.98;;
58242;SDS011;50118;53.232;8.252;2023-05-15T03:02:53;42.45;;;28.85;;
58242;SDS011;50118;53.232;8.252;2023-05-15T03:05:18;44.90;;;30.83;;
58242;SDS011;50118;53.232;8.252;2023-05-15T03:07:44;49.35;;;33.50;;
58242;SDS011;50118;53.232;8.252;2023-05-15T03:10:09;64.05;;;41.60;;
58242;SDS011;50118;53.232;8.252;2023-05-15T03:12:35;60.15;;;37.80;;
58242;SDS011;50118;53.232;8.252;2023-05-15T03:15:00;58.38;;;38.45;;
58242;SDS011;50118;53.232;8.252;2023-05-15T03:17:26;64.20;;;39.97;;
58242;SDS011;50118;53.232;8.252;2023-05-15T03:19:51;65.07;;;40.63;;
58242;SDS011;50118;53.232;8.252;2023-05-15T03:22:17;59.72;;;38.47;;
58242;SDS011;50118;53.232;8.252;2023-05-15T03:24:43;70.00;;;42.80;;
58242;SDS011;50118;53.232;8.252;2023-05-15T03:27:08;62.83;;;40.15;;
58242;SDS011;50118;53.232;8.252;2023-05-15T03:29:33;64.25;;;40.38;;
58242;SDS011;50118;53.232;8.252;2023-05-15T03:31:59;62.75;;;39.70;;
58242;SDS011;50118;53.232;8.252;2023-05-15T03:34:24;65.75;;;40.75;;
58242;SDS011;50118;53.232;8.252;2023-05-15T03:36:50;64.95;;;41.42;;
58242;SDS011;50118;53.232;8.252;2023-05-15T03:39:15;70.25;;;42.47;;
58242;SDS011;50118;53.232;8.252;2023-05-15T03:41:40;62.97;;;40.90;;
58242;SDS011;50118;53.232;8.252;2023-05-15T03:44:06;73.65;;;42.88;;
58242;SDS011;50118;53.232;8.252;2023-05-15T03:46:31;65.40;;;41.60;;
58242;SDS011;50118;53.232;8.252;2023-05-15T03:48:56;70.40;;;43.38;;
58242;SDS011;50118;53.232;8.252;2023-05-15T03:51:22;70.20;;;43.13;;
58242;SDS011;50118;53.232;8.252;2023-05-15T03:53:48;75.32;;;46.05;;
58242;SDS011;50118;53.232;8.252;2023-05-15T03:56:13;70.95;;;43.70;;
58242;SDS011;50118;53.232;8.252;2023-05-15T03:58:39;72.28;;;44.60;;
58242;SDS011;50118;53.232;8.252;2023-05-15T04:01:05;70.43;;;42.20;;
58242;SDS011;50118;53.232;8.252;2023-05-15T04:03:31;74.38;;;42.13;;
58242;SDS011;50118;53.232;8.252;2023-05-15T04:05:57;68.10;;;41.05;;
58242;SDS011;50118;53.232;8.252;2023-05-15T04:08:22;73.85;;;43.22;;
58242;SDS011;50118;53.232;8.252;2023-05-15T04:10:47;71.10;;;43.95;;
58242;SDS011;50118;53.232;8.252;2023-05-15T04:13:13;69.70;;;44.72;;
58242;SDS011;50118;53.232;8.252;2023-05-15T04:15:38;69.68;;;42.10;;
58242;SDS011;50118;53.232;8.252;2023-05-15T04:18:04;73.18;;;42.05;;
58242;SDS011;50118;53.232;8.252;2023-05-15T04:20:29;68.57;;;40.55;;
58242;SDS011;50118;53.232;8.252;2023-05-15T04:22:55;62.05;;;38.05;;
58242;SDS011;50118;53.232;8.252;2023-05-15T04:25:21;64.22;;;38.83;;
58242;SDS011;50118;53.232;8.252;2023-05-15T04:27:46;61.78;;;37.60;;
58242;SDS011;50118;53.232;8.252;2023-05-15T04:30:13;62.53;;;39.60;;
58242;SDS011;50118;53.232;8.252;2023-05-15T04:32:38;55.85;;;36.67;;
58242;SDS011;50118;53.232;8.252;2023-05-15T04:35:05;53.33;;;35.08;;
58242;SDS011;50118;53.232;8.252;2023-05-15T04:37:36;53.80;;;35.30;;
58242;SDS011;50118;53.232;8.252;2023-05-15T04:40:03;47.85;;;33.08;;
58242;SDS011;50118;53.232;8.252;2023-05-15T04:42:30;46.13;;;31.58;;
58242;SDS011;50118;53.232;8.252;2023-05-15T04:44:55;43.58;;;30.55;;
58242;SDS011;50118;53.232;8.252;2023-05-15T04:47:21;45.03;;;29.92;;
58242;SDS011;50118;53.232;8.252;2023-05-15T04:49:47;41.65;;;28.80;;
58242;SDS011;50118;53.232;8.252;2023-05-15T04:52:14;42.65;;;28.95;;
58242;SDS011;50118;53.232;8.252;2023-05-15T04:54:40;44.20;;;26.80;;
58242;SDS011;50118;53.232;8.252;2023-05-15T04:57:06;43.50;;;27.58;;
58242;SDS011;50118;53.232;8.252;2023-05-15T04:59:32;41.17;;;27.27;;
58242;SDS011;50118;53.232;8.252;2023-05-15T05:01:58;43.10;;;27.38;;
58242;SDS011;50118;53.232;8.252;2023-05-15T05:04:23;44.15;;;27.13;;
58242;SDS011;50118;53.232;8.252;2023-05-15T05:06:49;44.92;;;27.52;;
58242;SDS011;50118;53.232;8.252;2023-05-15T05:09:14;47.95;;;29.05;;
58242;SDS011;50118;53.232;8.252;2023-05-15T05:11:40;49.50;;;29.65;;
58242;SDS011;50118;53.232;8.252;2023-05-15T05:14:08;46.78;;;27.92;;
58242;SDS011;50118;53.232;8.252;2023-05-15T05:16:36;43.60;;;27.55;;
58242;SDS011;50118;53.232;8.252;2023-05-15T05:19:02;42.33;;;26.58;;
58242;SDS011;50118;53.232;8.252;2023-05-15T05:21:28;39.55;;;25.20;;
58242;SDS011;50118;53.232;8.252;2023-05-15T05:23:54;37.88;;;24.00;;
58242;SDS011;50118;53.232;8.252;2023-05-15T05:26:20;32.40;;;21.52;;
58242;SDS011;50118;53.232;8.252;2023-05-15T05:28:46;36.38;;;23.08;;
58242;SDS011;50118;53.232;8.252;2023-05-15T05:31:11;32.20;;;20.50;;
58242;SDS011;50118;53.232;8.252;2023-05-15T05:33:37;28.80;;;18.63;;
58242;SDS011;50118;53.232;8.252;2023-05-15T05:36:03;25.52;;;17.80;;
58242;SDS011;50118;53.232;8.252;2023-05-15T05:38:29;20.88;;;14.63;;
58242;SDS011;50118;53.232;8.252;2023-05-15T05:40:55;24.65;;;17.00;;
58242;SDS011;50118;53.232;8.252;2023-05-15T05:43:20;21.63;;;15.48;;
58242;SDS011;50118;53.232;8.252;2023-05-15T05:45:46;21.13;;;14.65;;
58242;SDS011;50118;53.232;8.252;2023-05-15T05:48:12;22.40;;;14.95;;
58242;SDS011;50118;53.232;8.252;2023-05-15T05:50:41;19.35;;;13.80;;
58242;SDS011;50118;53.232;8.252;2023-05-15T05:53:06;24.77;;;14.15;;
58242;SDS011;50118;53.232;8.252;2023-05-15T05:55:32;18.65;;;13.27;;
58242;SDS011;50118;53.232;8.252;2023-05-15T05:57:58;19.73;;;13.90;;
58242;SDS011;50118;53.232;8.252;2023-05-15T06:00:23;18.52;;;13.23;;
58242;SDS011;50118;53.232;8.252;2023-05-15T06:02:51;16.75;;;12.55;;
58242;SDS011;50118;53.232;8.252;2023-05-15T06:05:20;16.03;;;12.57;;
58242;SDS011;50118;53.232;8.252;2023-05-15T06:07:47;15.15;;;11.75;;
58242;SDS011;50118;53.232;8.252;2023-05-15T06:10:13;15.63;;;11.07;;
58242;SDS011;50118;53.232;8.252;2023-05-15T06:12:39;15.25;;;11.65;;
58242;SDS011;50118;53.232;8.252;2023-05-15T06:15:04;16.38;;;11.65;;
58242;SDS011;50118;53.232;8.252;2023-05-15T06:17:31;14.30;;;11.55;;
58242;SDS011;50118;53.232;8.252;2023-05-15T06:19:56;18.42;;;12.10;;
58242;SDS011;50118;53.232;8.252;2023-05-15T06:22:21;15.10;;;12.10;;
58242;SDS011;50118;53.232;8.252;2023-05-15T06:24:47;17.55;;;12.52;;
58242;SDS011;50118;53.232;8.252;2023-05-15T06:27:13;13.70;;;10.82;;
58242;SDS011;50118;53.232;8.252;2023-05-15T06:29:38;15.00;;;11.05;;
58242;SDS011;50118;53.232;8.252;2023-05-15T06:32:04;15.20;;;11.50;;
58242;SDS011;50118;53.232;8.252;2023-05-15T06:34:30;15.57;;;11.65;;
58242;SDS011;50118;53.232;8.252;2023-05-15T06:36:56;14.15;;;11.60;;
58242;SDS011;50118;53.232;8.252;2023-05-15T06:39:21;15.38;;;11.80;;
58242;SDS011;50118;53.232;8.252;2023-05-15T06:41:49;15.82;;;10.93;;
58242;SDS011;50118;53.232;8.252;2023-05-15T06:44:14;14.45;;;11.65;;
58242;SDS011;50118;53.232;8.252;2023-05-15T06:46:46;18.45;;;11.80;;
58242;SDS011;50118;53.232;8.252;2023-05-15T06:49:19;15.00;;;11.07;;
58242;SDS011;50118;53.232;8.252;2023-05-15T06:51:44;15.27;;;11.38;;
58242;SDS011;50118;53.232;8.252;2023-05-15T06:54:10;13.43;;;10.60;;
58242;SDS011;50118;53.232;8.252;2023-05-15T06:56:36;15.07;;;12.00;;
58242;SDS011;50118;53.232;8.252;2023-05-15T06:59:02;15.25;;;12.13;;
58242;SDS011;50118;53.232;8.252;2023-05-15T07:01:29;16.55;;;12.30;;
58242;SDS011;50118;53.232;8.252;2023-05-15T07:03:55;14.77;;;11.57;;
58242;SDS011;50118;53.232;8.252;2023-05-15T07:06:20;13.85;;;11.52;;
58242;SDS011;50118;53.232;8.252;2023-05-15T07:08:46;14.95;;;12.13;;
58242;SDS011;50118;53.232;8.252;2023-05-15T07:11:11;14.85;;;11.65;;
58242;SDS011;50118;53.232;8.252;2023-05-15T07:13:37;14.90;;;11.57;;
58242;SDS011;50118;53.232;8.252;2023-05-15T07:16:02;16.13;;;11.80;;
58242;SDS011;50118;53.232;8.252;2023-05-15T07:18:31;15.93;;;11.75;;
58242;SDS011;50118;53.232;8.252;2023-05-15T07:20:57;15.00;;;11.95;;
58242;SDS011;50118;53.232;8.252;2023-05-15T07:23:22;16.60;;;12.35;;
58242;SDS011;50118;53.232;8.252;2023-05-15T07:25:48;16.17;;;12.10;;
58242;SDS011;50118;53.232;8.252;2023-05-15T07:28:14;13.85;;;11.07;;
58242;SDS011;50118;53.232;8.252;2023-05-15T07:30:39;15.48;;;11.95;;
58242;SDS011;50118;53.232;8.252;2023-05-15T07:33:05;14.32;;;11.50;;
58242;SDS011;50118;53.232;8.252;2023-05-15T07:35:31;16.48;;;11.73;;
58242;SDS011;50118;53.232;8.252;2023-05-15T07:37:56;14.82;;;12.02;;
58242;SDS011;50118;53.232;8.252;2023-05-15T07:40:22;14.82;;;11.90;;
58242;SDS011;50118;53.232;8.252;2023-05-15T07:42:47;15.48;;;11.90;;
58242;SDS011;50118;53.232;8.252;2023-05-15T07:45:13;14.68;;;12.00;;
58242;SDS011;50118;53.232;8.252;2023-05-15T07:47:43;16.85;;;12.25;;
58242;SDS011;50118;53.232;8.252;2023-05-15T07:50:10;14.65;;;11.30;;
58242;SDS011;50118;53.232;8.252;2023-05-15T07:52:35;15.07;;;11.48;;
58242;SDS011;50118;53.232;8.252;2023-05-15T07:55:01;15.65;;;12.75;;
58242;SDS011;50118;53.232;8.252;2023-05-15T07:57:26;13.90;;;11.50;;
58242;SDS011;50118;53.232;8.252;2023-05-15T07:59:52;14.00;;;11.68;;
58242;SDS011;50118;53.232;8.252;2023-05-15T08:02:18;13.63;;;11.45;;
58242;SDS011;50118;53.232;8.252;2023-05-15T08:04:43;15.52;;;11.85;;
58242;SDS011;50118;53.232;8.252;2023-05-15T08:07:09;14.27;;;11.48;;
58242;SDS011;50118;53.232;8.252;2023-05-15T08:09:34;14.00;;;12.23;;
58242;SDS011;50118;53.232;8.252;2023-05-15T08:12:19;15.45;;;12.10;;
58242;SDS011;50118;53.232;8.252;2023-05-15T08:14:46;16.30;;;12.50;;
58242;SDS011;50118;53.232;8.252;2023-05-15T08:17:15;15.63;;;12.57;;
58242;SDS011;50118;53.232;8.252;2023-05-15T08:19:41;15.60;;;11.35;;
58242;SDS011;50118;53.232;8.252;2023-05-15T08:22:07;14.07;;;11.18;;
58242;SDS011;50118;53.232;8.252;2023-05-15T08:24:33;14.85;;;12.13;;
58242;SDS011;50118;53.232;8.252;2023-05-15T08:26:58;14.10;;;11.32;;
58242;SDS011;50118;53.232;8.252;2023-05-15T08:29:24;14.75;;;11.73;;
58242;SDS011;50118;53.232;8.252;2023-05-15T08:31:49;16.38;;;12.65;;
58242;SDS011;50118;53.232;8.252;2023-05-15T08:34:15;15.95;;;12.93;;
58242;SDS011;50118;53.232;8.252;2023-05-15T08:36:40;15.52;;;12.27;;
58242;SDS011;50118;53.232;8.252;2023-05-15T08:39:06;14.85;;;12.05;;
58242;SDS011;50118;53.232;8.252;2023-05-15T08:41:35;16.42;;;12.25;;
58242;SDS011;50118;53.232;8.252;2023-05-15T08:44:07;16.25;;;12.45;;
58242;SDS011;50118;53.232;8.252;2023-05-15T08:46:33;16.80;;;12.27;;
58242;SDS011;50118;53.232;8.252;2023-05-15T08:49:00;16.80;;;13.07;;
58242;SDS011;50118;53.232;8.252;2023-05-15T08:51:33;17.00;;;12.73;;
58242;SDS011;50118;53.232;8.252;2023-05-15T08:53:58;15.98;;;12.70;;
58242;SDS011;50118;53.232;8.252;2023-05-15T08:56:24;16.27;;;13.13;;
58242;SDS011;50118;53.232;8.252;2023-05-15T08:58:50;17.17;;;13.07;;
58242;SDS011;50118;53.232;8.252;2023-05-15T09:01:16;16.98;;;14.07;;
58242;SDS011;50118;53.232;8.252;2023-05-15T09:03:41;17.05;;;13.80;;
58242;SDS011;50118;53.232;8.252;2023-05-15T09:06:07;15.93;;;13.00;;
58242;SDS011;50118;53.232;8.252;2023-05-15T09:08:34;15.50;;;12.43;;
58242;SDS011;50118;53.232;8.252;2023-05-15T09:11:01;14.15;;;11.57;;
58242;SDS011;50118;53.232;8.252;2023-05-15T09:13:28;14.18;;;11.52;;
58242;SDS011;50118;53.232;8.252;2023-05-15T09:15:55;15.65;;;12.18;;
58242;SDS011;50118;53.232;8.252;2023-05-15T09:18:20;15.10;;;12.02;;
58242;SDS011;50118;53.232;8.252;2023-05-15T09:20:46;18.38;;;12.77;;
58242;SDS011;50118;53.232;8.252;2023-05-15T09:23:24;15.93;;;12.45;;
58242;SDS011;50118;53.232;8.252;2023-05-15T09:25:51;14.02;;;11.82;;
58242;SDS011;50118;53.232;8.252;2023-05-15T09:28:29;14.63;;;11.82;;
58242;SDS011;50118;53.232;8.252;2023-05-15T09:33:31;15.35;;;12.02;;
58242;SDS011;50118;53.232;8.252;2023-05-15T09:35:58;16.23;;;11.95;;
58242;SDS011;50118;53.232;8.252;2023-05-15T09:38:23;15.10;;;11.80;;
58242;SDS011;50118;53.232;8.252;2023-05-15T09:40:49;16.35;;;13.68;;
58242;SDS011;50118;53.232;8.252;2023-05-15T09:43:15;15.80;;;12.68;;
58242;SDS011;50118;53.232;8.252;2023-05-15T09:45:41;15.88;;;12.90;;
58242;SDS011;50118;53.232;8.252;2023-05-15T09:48:07;17.20;;;13.30;;
58242;SDS011;50118;53.232;8.252;2023-05-15T09:50:34;14.13;;;12.30;;
58242;SDS011;50118;53.232;8.252;2023-05-15T09:53:01;14.88;;;11.57;;
58242;SDS011;50118;53.232;8.252;2023-05-15T09:55:27;12.60;;;10.57;;
58242;SDS011;50118;53.232;8.252;2023-05-15T09:58:05;16.80;;;12.85;;
58242;SDS011;50118;53.232;8.252;2023-05-15T10:00:39;18.83;;;12.95;;
58242;SDS011;50118;53.232;8.252;2023-05-15T10:03:06;16.48;;;13.90;;
58242;SDS011;50118;53.232;8.252;2023-05-15T10:05:32;19.92;;;14.60;;
58242;SDS011;50118;53.232;8.252;2023-05-15T10:07:59;16.77;;;13.90;;
58242;SDS011;50118;53.232;8.252;2023-05-15T10:10:26;17.35;;;13.57;;
58242;SDS011;50118;53.232;8.252;2023-05-15T10:12:53;15.32;;;12.38;;
58242;SDS011;50118;53.232;8.252;2023-05-15T10:15:22;14.57;;;12.02;;
58242;SDS011;50118;53.232;8.252;2023-05-15T10:17:49;13.68;;;11.15;;
58242;SDS011;50118;53.232;8.252;2023-05-15T10:20:16;14.38;;;12.70;;
58242;SDS011;50118;53.232;8.252;2023-05-15T10:22:47;15.85;;;12.45;;
58242;SDS011;50118;53.232;8.252;2023-05-15T10:27:50;14.15;;;11.35;;
58242;SDS011;50118;53.232;8.252;2023-05-15T10:30:17;13.35;;;11.38;;
58242;SDS011;50118;53.232;8.252;2023-05-15T10:32:43;14.10;;;11.18;;
58242;SDS011;50118;53.232;8.252;2023-05-15T10:35:09;16.17;;;11.27;;
58242;SDS011;50118;53.232;8.252;2023-05-15T10:37:36;15.75;;;11.95;;
58242;SDS011;50118;53.232;8.252;2023-05-15T10:40:05;16.20;;;13.38;;
58242;SDS011;50118;53.232;8.252;2023-05-15T10:42:33;15.85;;;12.40;;
58242;SDS011;50118;53.232;8.252;2023-05-15T10:45:00;16.00;;;13.25;;
58242;SDS011;50118;53.232;8.252;2023-05-15T10:47:28;16.38;;;13.38;;
58242;SDS011;50118;53.232;8.252;2023-05-15T10:49:55;16.83;;;13.90;;
58242;SDS011;50118;53.232;8.252;2023-05-15T10:52:21;18.20;;;14.43;;
58242;SDS011;50118;53.232;8.252;2023-05-15T10:54:46;18.02;;;15.10;;
58242;SDS011;50118;53.232;8.252;2023-05-15T10:57:13;21.25;;;15.43;;
58242;SDS011;50118;53.232;8.252;2023-05-15T10:59:39;19.63;;;14.68;;
58242;SDS011;50118;53.232;8.252;2023-05-15T11:02:21;18.83;;;14.43;;
58242;SDS011;50118;53.232;8.252;2023-05-15T11:04:55;17.10;;;13.30;;
58242;SDS011;50118;53.232;8.252;2023-05-15T11:07:22;20.17;;;15.75;;
58242;SDS011;50118;53.232;8.252;2023-05-15T11:09:49;21.25;;;16.35;;
58242;SDS011;50118;53.232;8.252;2023-05-15T11:12:14;18.30;;;14.93;;
58242;SDS011;50118;53.232;8.252;2023-05-15T11:15:22;18.20;;;15.35;;
58242;SDS011;50118;53.232;8.252;2023-05-15T11:17:36;21.60;;;16.80;;
58242;SDS011;50118;53.232;8.252;2023-05-15T11:20:01;22.25;;;17.45;;
58242;SDS011;50118;53.232;8.252;2023-05-15T11:22:33;22.20;;;16.85;;
58242;SDS011;50118;53.232;8.252;2023-05-15T11:25:06;25.88;;;16.42;;
58242;SDS011;50118;53.232;8.252;2023-05-15T11:27:40;19.65;;;16.02;;
58242;SDS011;50118;53.232;8.252;2023-05-15T11:30:11;22.65;;;17.15;;
58242;SDS011;50118;53.232;8.252;2023-05-15T11:40:17;20.83;;;17.33;;
58242;SDS011;50118;53.232;8.252;2023-05-15T11:45:42;20.30;;;17.35;;
58242;SDS011;50118;53.232;8.252;2023-05-15T11:48:14;22.08;;;17.60;;
58242;SDS011;50118;53.232;8.252;2023-05-15T11:50:40;20.83;;;15.70;;
58242;SDS011;50118;53.232;8.252;2023-05-15T11:53:07;18.20;;;14.98;;
58242;SDS011;50118;53.232;8.252;2023-05-15T11:55:37;14.38;;;12.85;;
58242;SDS011;50118;53.232;8.252;2023-05-15T11:58:04;15.45;;;12.35;;
58242;SDS011;50118;53.232;8.252;2023-05-15T12:00:35;14.23;;;12.13;;
58242;SDS011;50118;53.232;8.252;2023-05-15T12:03:01;14.80;;;12.15;;
58242;SDS011;50118;53.232;8.252;2023-05-15T12:05:27;13.95;;;12.55;;
58242;SDS011;50118;53.232;8.252;2023-05-15T12:07:55;12.23;;;10.93;;
58242;SDS011;50118;53.232;8.252;2023-05-15T12:10:21;11.38;;;10.00;;
58242;SDS011;50118;53.232;8.252;2023-05-15T12:12:47;11.32;;;9.77;;
58242;SDS011;50118;53.232;8.252;2023-05-15T12:15:13;12.73;;;9.80;;
58242;SDS011;50118;53.232;8.252;2023-05-15T12:17:40;11.85;;;8.50;;
58242;SDS011;50118;53.232;8.252;2023-05-15T12:20:07;8.93;;;7.03;;
58242;SDS011;50118;53.232;8.252;2023-05-15T12:22:36;11.70;;;8.38;;
58242;SDS011;50118;53.232;8.252;2023-05-15T12:25:06;9.98;;;7.28;;
58242;SDS011;50118;53.232;8.252;2023-05-15T12:27:32;11.52;;;7.72;;
58242;SDS011;50118;53.232;8.252;2023-05-15T12:29:58;14.52;;;9.30;;
58242;SDS011;50118;53.232;8.252;2023-05-15T12:32:23;9.73;;;8.02;;
58242;SDS011;50118;53.232;8.252;2023-05-15T12:34:50;12.20;;;8.15;;
58242;SDS011;50118;53.232;8.252;2023-05-15T12:37:17;10.30;;;7.72;;
58242;SDS011;50118;53.232;8.252;2023-05-15T12:39:50;12.55;;;8.23;;
58242;SDS011;50118;53.232;8.252;2023-05-15T12:42:17;10.32;;;8.18;;
58242;SDS011;50118;53.232;8.252;2023-05-15T12:44:42;9.15;;;6.70;;
58242;SDS011;50118;53.232;8.252;2023-05-15T12:47:08;8.57;;;6.60;;
58242;SDS011;50118;53.232;8.252;2023-05-15T12:49:37;8.48;;;7.57;;
58242;SDS011;50118;53.232;8.252;2023-05-15T12:52:08;10.43;;;9.13;;
58242;SDS011;50118;53.232;8.252;2023-05-15T12:54:38;9.95;;;7.88;;
58242;SDS011;50118;53.232;8.252;2023-05-15T12:57:07;10.55;;;8.05;;
58242;SDS011;50118;53.232;8.252;2023-05-15T12:59:33;10.77;;;7.97;;
58242;SDS011;50118;53.232;8.252;2023-05-15T13:02:00;8.32;;;6.35;;
58242;SDS011;50118;53.232;8.252;2023-05-15T13:04:25;9.35;;;6.85;;
58242;SDS011;50118;53.232;8.252;2023-05-15T13:06:51;7.55;;;5.95;;
58242;SDS011;50118;53.232;8.252;2023-05-15T13:09:21;7.63;;;5.20;;
58242;SDS011;50118;53.232;8.252;2023-05-15T13:11:47;6.97;;;4.55;;
58242;SDS011;50118;53.232;8.252;2023-05-15T13:14:13;9.40;;;5.03;;
58242;SDS011;50118;53.232;8.252;2023-05-15T13:16:42;6.57;;;4.85;;
58242;SDS011;50118;53.232;8.252;2023-05-15T13:19:08;6.60;;;4.43;;
58242;SDS011;50118;53.232;8.252;2023-05-15T13:21:35;7.68;;;5.43;;
58242;SDS011;50118;53.232;8.252;2023-05-15T13:24:01;7.45;;;4.85;;
58242;SDS011;50118;53.232;8.252;2023-05-15T13:26:26;8.43;;;5.35;;
58242;SDS011;50118;53.232;8.252;2023-05-15T13:28:52;8.88;;;4.82;;
58242;SDS011;50118;53.232;8.252;2023-05-15T13:31:17;10.10;;;5.32;;
58242;SDS011;50118;53.232;8.252;2023-05-15T13:33:43;6.75;;;5.97;;
58242;SDS011;50118;53.232;8.252;2023-05-15T13:36:11;6.97;;;5.00;;
58242;SDS011;50118;53.232;8.252;2023-05-15T13:38:43;7.30;;;5.05;;
58242;SDS011;50118;53.232;8.252;2023-05-15T13:41:09;8.45;;;4.93;;
58242;SDS011;50118;53.232;8.252;2023-05-15T13:43:34;6.20;;;4.93;;
58242;SDS011;50118;53.232;8.252;2023-05-15T13:46:00;6.30;;;4.53;;
58242;SDS011;50118;53.232;8.252;2023-05-15T13:48:25;6.68;;;4.70;;
58242;SDS011;50118;53.232;8.252;2023-05-15T13:50:51;5.57;;;4.35;;
58242;SDS011;50118;53.232;8.252;2023-05-15T13:53:19;7.18;;;4.80;;
58242;SDS011;50118;53.232;8.252;2023-05-15T13:55:48;7.85;;;5.13;;
58242;SDS011;50118;53.232;8.252;2023-05-15T13:58:13;9.00;;;6.25;;
58242;SDS011;50118;53.232;8.252;2023-05-15T14:00:41;6.22;;;5.35;;
58242;SDS011;50118;53.232;8.252;2023-05-15T14:03:07;7.18;;;5.30;;
58242;SDS011;50118;53.232;8.252;2023-05-15T14:05:33;7.90;;;6.00;;
58242;SDS011;50118;53.232;8.252;2023-05-15T14:07:59;8.13;;;5.70;;
58242;SDS011;50118;53.232;8.252;2023-05-15T14:10:24;7.30;;;5.45;;
58242;SDS011;50118;53.232;8.252;2023-05-15T14:13:00;6.82;;;5.20;;
58242;SDS011;50118;53.232;8.252;2023-05-15T14:15:25;7.97;;;5.85;;
58242;SDS011;50118;53.232;8.252;2023-05-15T14:17:51;6.72;;;4.97;;
58242;SDS011;50118;53.232;8.252;2023-05-15T14:20:16;6.05;;;5.05;;
58242;SDS011;50118;53.232;8.252;2023-05-15T14:22:42;8.73;;;4.95;;
58242;SDS011;50118;53.232;8.252;2023-05-15T14:25:07;6.95;;;5.13;;
58242;SDS011;50118;53.232;8.252;2023-05-15T14:27:33;6.28;;;5.00;;
58242;SDS011;50118;53.232;8.252;2023-05-15T14:29:59;6.53;;;5.80;;
58242;SDS011;50118;53.232;8.252;2023-05-15T14:32:25;6.82;;;5.85;;
58242;SDS011;50118;53.232;8.252;2023-05-15T14:34:50;8.20;;;6.28;;
58242;SDS011;50118;53.232;8.252;2023-05-15T14:37:17;7.65;;;6.60;;
58242;SDS011;50118;53.232;8.252;2023-05-15T14:39:45;7.80;;;6.47;;
58242;SDS011;50118;53.232;8.252;2023-05-15T14:42:11;8.25;;;7.43;;
58242;SDS011;50118;53.232;8.252;2023-05-15T14:44:36;8.68;;;7.78;;
58242;SDS011;50118;53.232;8.252;2023-05-15T14:47:06;9.93;;;7.22;;
58242;SDS011;50118;53.232;8.252;2023-05-15T14:49:33;8.80;;;7.43;;
58242;SDS011;50118;53.232;8.252;2023-05-15T14:52:02;8.45;;;7.20;;
58242;SDS011;50118;53.232;8.252;2023-05-15T14:54:30;8.88;;;6.53;;
58242;SDS011;50118;53.232;8.252;2023-05-15T14:56:56;9.73;;;7.90;;